sensor_id;sensor_type;location;lat;lon;timestamp;pressure;altitude;pressure_sealevel;temperature;humidity
25430;BME280;13360;48.152;-1.788;2023-05-23T00:01:52;102247.09;;;17.03;100.00
25430;BME280;13360;48.152;-1.788;2023-05-23T00:04:19;102257.13;;;17.04;100.00
25430;BME280;13360;48.152;-1.788;2023-05-23T00:06:44;102292.25;;;17.05;100.00
25430;BME280;13360;48.152;-1.788;2023-05-23T00:09:14;102296.19;;;17.04;100.00
25430;BME280;13360;48.152;-1.788;2023-05-23T00:11:40;102305.69;;;17.03;100.00
25430;BME280;13360;48.152;-1.788;2023-05-23T00:14:09;102320.78;;;17.02;100.00
25430;BME280;13360;48.152;-1.788;2023-05-23T00:16:34;102318.53;;;17.04;100.00
25430;BME280;13360;48.152;-1.788;2023-05-23T00:19:05;102318.00;;;17.02;100.00
25430;BME280;13360;48.152;-1.788;2023-05-23T00:21:30;102321.94;;;17.01;100.00
25430;BME280;13360;48.152;-1.788;2023-05-23T00:23:56;102322.75;;;17.02;100.00
25430;BME280;13360;48.152;-1.788;2023-05-23T00:26:22;102328.03;;;17.03;100.00
25430;BME280;13360;48.152;-1.788;2023-05-23T00:28:48;102330.81;;;17.03;100.00
25430;BME280;13360;48.152;-1.788;2023-05-23T00:31:13;102329.69;;;17.04;100.00
25430;BME280;13360;48.152;-1.788;2023-05-23T00:33:38;102324.09;;;17.04;100.00
25430;BME280;13360;48.152;-1.788;2023-05-23T00:36:03;102327.72;;;17.05;100.00
25430;BME280;13360;48.152;-1.788;2023-05-23T00:38:30;102327.72;;;17.05;100.00
25430;BME280;13360;48.152;-1.788;2023-05-23T00:40:55;102330.28;;;17.01;100.00
25430;BME280;13360;48.152;-1.788;2023-05-23T00:43:20;102313.63;;;16.96;100.00
25430;BME280;13360;48.152;-1.788;2023-05-23T00:45:47;102316.94;;;16.98;100.00
25430;BME280;13360;48.152;-1.788;2023-05-23T00:48:12;102315.81;;;16.99;100.00
25430;BME280;13360;48.152;-1.788;2023-05-23T00:50:38;102310.22;;;16.99;100.00
25430;BME280;13360;48.152;-1.788;2023-05-23T00:53:04;102295.44;;;16.99;100.00
25430;BME280;13360;48.152;-1.788;2023-05-23T00:55:30;102282.63;;;16.98;100.00
25430;BME280;13360;48.152;-1.788;2023-05-23T00:57:55;102292.66;;;16.99;100.00
25430;BME280;13360;48.152;-1.788;2023-05-23T01:00:21;102289.22;;;16.88;100.00
25430;BME280;13360;48.152;-1.788;2023-05-23T01:02:47;102295.66;;;16.84;100.00
25430;BME280;13360;48.152;-1.788;2023-05-23T01:05:15;102308.66;;;16.74;100.00
25430;BME280;13360;48.152;-1.788;2023-05-23T01:10:09;102319.06;;;16.69;100.00
25430;BME280;13360;48.152;-1.788;2023-05-23T01:17:33;102333.03;;;16.64;100.00
25430;BME280;13360;48.152;-1.788;2023-05-23T01:20:10;102342.53;;;16.63;100.00
25430;BME280;13360;48.152;-1.788;2023-05-23T01:30:04;102350.44;;;16.56;100.00
25430;BME280;13360;48.152;-1.788;2023-05-23T01:32:33;102358.28;;;16.54;100.00
25430;BME280;13360;48.152;-1.788;2023-05-23T01:34:59;102369.44;;;16.54;100.00
25430;BME280;13360;48.152;-1.788;2023-05-23T01:37:24;102370.03;;;16.51;100.00
25430;BME280;13360;48.152;-1.788;2023-05-23T01:39:50;102378.69;;;16.49;100.00
25430;BME280;13360;48.152;-1.788;2023-05-23T01:42:15;102377.88;;;16.49;100.00
25430;BME280;13360;48.152;-1.788;2023-05-23T01:44:40;102374.53;;;16.46;100.00
25430;BME280;13360;48.152;-1.788;2023-05-23T01:47:07;102370.09;;;16.45;100.00
25430;BME280;13360;48.152;-1.788;2023-05-23T01:49:33;102383.22;;;16.45;100.00
25430;BME280;13360;48.152;-1.788;2023-05-23T01:51:59;102373.44;;;16.42;100.00
25430;BME280;13360;48.152;-1.788;2023-05-23T01:54:25;102375.41;;;16.42;100.00
25430;BME280;13360;48.152;-1.788;2023-05-23T01:56:53;102374.06;;;16.39;100.00
25430;BME280;13360;48.152;-1.788;2023-05-23T01:59:19;102369.06;;;16.36;100.00
25430;BME280;13360;48.152;-1.788;2023-05-23T02:01:44;102373.81;;;16.36;100.00
25430;BME280;13360;48.152;-1.788;2023-05-23T02:04:09;102373.28;;;16.34;100.00
25430;BME280;13360;48.152;-1.788;2023-05-23T02:06:35;102384.16;;;16.35;100.00
25430;BME280;13360;48.152;-1.788;2023-05-23T02:09:00;102371.31;;;16.34;100.00
25430;BME280;13360;48.152;-1.788;2023-05-23T02:11:25;102368.00;;;16.32;100.00
25430;BME280;13360;48.152;-1.788;2023-05-23T02:13:50;102366.88;;;16.33;100.00
25430;BME280;13360;48.152;-1.788;2023-05-23T02:16:16;102372.69;;;16.37;100.00
25430;BME280;13360;48.152;-1.788;2023-05-23T02:18:42;102379.03;;;16.42;100.00
25430;BME280;13360;48.152;-1.788;2023-05-23T02:21:10;102376.78;;;16.44;100.00
25430;BME280;13360;48.152;-1.788;2023-05-23T02:23:35;102383.75;;;16.47;100.00
25430;BME280;13360;48.152;-1.788;2023-05-23T02:26:00;102388.72;;;16.50;100.00
25430;BME280;13360;48.152;-1.788;2023-05-23T02:28:25;102383.69;;;16.52;100.00
25430;BME280;13360;48.152;-1.788;2023-05-23T02:30:50;102388.13;;;16.53;100.00
25430;BME280;13360;48.152;-1.788;2023-05-23T02:33:16;102386.69;;;16.56;100.00
25430;BME280;13360;48.152;-1.788;2023-05-23T02:35:41;102401.16;;;16.58;100.00
25430;BME280;13360;48.152;-1.788;2023-05-23T02:38:07;102422.66;;;16.57;100.00
25430;BME280;13360;48.152;-1.788;2023-05-23T02:40:32;102435.19;;;16.60;100.00
25430;BME280;13360;48.152;-1.788;2023-05-23T02:42:57;102436.31;;;16.59;100.00
25430;BME280;13360;48.152;-1.788;2023-05-23T02:45:22;102443.97;;;16.48;100.00
25430;BME280;13360;48.152;-1.788;2023-05-23T02:47:48;102500.06;;;16.41;100.00
25430;BME280;13360;48.152;-1.788;2023-05-23T02:50:13;102529.09;;;16.40;100.00
25430;BME280;13360;48.152;-1.788;2023-05-23T02:52:38;102552.53;;;16.39;100.00
25430;BME280;13360;48.152;-1.788;2023-05-23T02:55:04;102568.72;;;16.37;100.00
25430;BME280;13360;48.152;-1.788;2023-05-23T02:57:29;102592.16;;;16.36;100.00
25430;BME280;13360;48.152;-1.788;2023-05-23T02:59:54;102608.06;;;16.36;100.00
25430;BME280;13360;48.152;-1.788;2023-05-23T03:02:19;102629.00;;;16.33;100.00
25430;BME280;13360;48.152;-1.788;2023-05-23T03:04:45;102641.28;;;16.32;100.00
25430;BME280;13360;48.152;-1.788;2023-05-23T03:07:10;102661.34;;;16.34;100.00
25430;BME280;13360;48.152;-1.788;2023-05-23T03:09:37;102673.88;;;16.37;100.00
25430;BME280;13360;48.152;-1.788;2023-05-23T03:12:03;102689.78;;;16.36;100.00
25430;BME280;13360;48.152;-1.788;2023-05-23T03:14:28;102694.81;;;16.34;100.00
25430;BME280;13360;48.152;-1.788;2023-05-23T03:16:53;102715.19;;;16.30;100.00
25430;BME280;13360;48.152;-1.788;2023-05-23T03:19:19;102722.44;;;16.31;100.00
25430;BME280;13360;48.152;-1.788;2023-05-23T03:21:44;102734.75;;;16.25;100.00
25430;BME280;13360;48.152;-1.788;2023-05-23T03:24:09;102751.16;;;16.31;100.00
25430;BME280;13360;48.152;-1.788;2023-05-23T03:26:34;102755.63;;;16.32;100.00
25430;BME280;13360;48.152;-1.788;2023-05-23T03:29:00;102767.63;;;16.28;100.00
25430;BME280;13360;48.152;-1.788;2023-05-23T03:31:25;102776.81;;;16.33;100.00
25430;BME280;13360;48.152;-1.788;2023-05-23T03:33:50;102777.13;;;16.27;100.00
25430;BME280;13360;48.152;-1.788;2023-05-23T03:36:16;102791.88;;;16.32;100.00
25430;BME280;13360;48.152;-1.788;2023-05-23T03:38:41;102793.28;;;16.30;100.00
25430;BME280;13360;48.152;-1.788;2023-05-23T03:41:06;102790.19;;;16.31;100.00
25430;BME280;13360;48.152;-1.788;2023-05-23T03:43:31;102805.25;;;16.30;100.00
25430;BME280;13360;48.152;-1.788;2023-05-23T03:45:57;102805.84;;;16.22;100.00
25430;BME280;13360;48.152;-1.788;2023-05-23T03:48:22;102813.38;;;16.22;100.00
25430;BME280;13360;48.152;-1.788;2023-05-23T03:50:48;102824.81;;;16.25;100.00
25430;BME280;13360;48.152;-1.788;2023-05-23T03:53:13;102828.16;;;16.27;100.00
25430;BME280;13360;48.152;-1.788;2023-05-23T03:55:38;102832.06;;;16.26;100.00
25430;BME280;13360;48.152;-1.788;2023-05-23T03:58:03;102836.50;;;16.27;100.00
25430;BME280;13360;48.152;-1.788;2023-05-23T04:00:29;102838.19;;;16.28;100.00
25430;BME280;13360;48.152;-1.788;2023-05-23T04:02:54;102840.13;;;16.28;100.00
25430;BME280;13360;48.152;-1.788;2023-05-23T04:05:19;102829.00;;;16.17;100.00
25430;BME280;13360;48.152;-1.788;2023-05-23T04:07:45;102825.41;;;16.12;100.00
25430;BME280;13360;48.152;-1.788;2023-05-23T04:10:10;102826.78;;;16.14;100.00
25430;BME280;13360;48.152;-1.788;2023-05-23T04:12:36;102828.75;;;16.14;100.00
25430;BME280;13360;48.152;-1.788;2023-05-23T04:15:01;102817.31;;;16.15;100.00
25430;BME280;13360;48.152;-1.788;2023-05-23T04:17:27;102811.69;;;16.21;100.00
25430;BME280;13360;48.152;-1.788;2023-05-23T04:19:54;102800.28;;;16.17;100.00
25430;BME280;13360;48.152;-1.788;2023-05-23T04:22:20;102771.00;;;16.20;100.00
25430;BME280;13360;48.152;-1.788;2023-05-23T04:24:45;102758.19;;;16.19;100.00
25430;BME280;13360;48.152;-1.788;2023-05-23T04:27:10;102733.94;;;16.14;100.00
25430;BME280;13360;48.152;-1.788;2023-05-23T04:29:35;102701.03;;;16.16;100.00
25430;BME280;13360;48.152;-1.788;2023-05-23T04:32:02;102662.63;;;16.08;100.00
25430;BME280;13360;48.152;-1.788;2023-05-23T04:34:27;102636.16;;;16.05;100.00
25430;BME280;13360;48.152;-1.788;2023-05-23T04:36:52;102618.56;;;16.10;100.00
25430;BME280;13360;48.152;-1.788;2023-05-23T04:39:18;102570.94;;;16.06;100.00
25430;BME280;13360;48.152;-1.788;2023-05-23T04:41:44;102556.66;;;16.13;100.00
25430;BME280;13360;48.152;-1.788;2023-05-23T04:44:09;102533.47;;;16.17;100.00
25430;BME280;13360;48.152;-1.788;2023-05-23T04:46:34;102496.69;;;16.15;100.00
25430;BME280;13360;48.152;-1.788;2023-05-23T04:49:00;102473.91;;;16.08;100.00
25430;BME280;13360;48.152;-1.788;2023-05-23T04:51:25;102475.00;;;16.12;100.00
25430;BME280;13360;48.152;-1.788;2023-05-23T04:53:51;102466.38;;;16.09;100.00
25430;BME280;13360;48.152;-1.788;2023-05-23T04:56:16;102457.97;;;16.14;100.00
25430;BME280;13360;48.152;-1.788;2023-05-23T04:58:42;102441.63;;;16.02;100.00
25430;BME280;13360;48.152;-1.788;2023-05-23T05:01:09;102436.56;;;16.09;100.00
25430;BME280;13360;48.152;-1.788;2023-05-23T05:03:34;102425.88;;;16.16;100.00
25430;BME280;13360;48.152;-1.788;2023-05-23T05:05:59;102402.59;;;16.02;100.00
25430;BME280;13360;48.152;-1.788;2023-05-23T05:08:25;102399.72;;;16.12;100.00
25430;BME280;13360;48.152;-1.788;2023-05-23T05:10:51;102400.78;;;16.16;100.00
25430;BME280;13360;48.152;-1.788;2023-05-23T05:13:16;102396.16;;;16.07;100.00
25430;BME280;13360;48.152;-1.788;2023-05-23T05:15:41;102399.53;;;16.04;100.00
25430;BME280;13360;48.152;-1.788;2023-05-23T05:18:06;102412.34;;;16.05;100.00
25430;BME280;13360;48.152;-1.788;2023-05-23T05:20:32;102422.91;;;16.08;100.00
25430;BME280;13360;48.152;-1.788;2023-05-23T05:22:57;102429.84;;;16.10;100.00
25430;BME280;13360;48.152;-1.788;2023-05-23T05:25:22;102426.38;;;15.95;100.00
25430;BME280;13360;48.152;-1.788;2023-05-23T05:27:48;102436.38;;;15.96;100.00
25430;BME280;13360;48.152;-1.788;2023-05-23T05:30:13;102442.44;;;16.03;100.00
25430;BME280;13360;48.152;-1.788;2023-05-23T05:32:38;102449.94;;;16.07;100.00
25430;BME280;13360;48.152;-1.788;2023-05-23T05:35:04;102447.19;;;16.02;100.00
25430;BME280;13360;48.152;-1.788;2023-05-23T05:37:29;102449.44;;;16.00;100.00
25430;BME280;13360;48.152;-1.788;2023-05-23T05:39:55;102438.28;;;16.00;100.00
25430;BME280;13360;48.152;-1.788;2023-05-23T05:42:20;102459.16;;;16.03;100.00
25430;BME280;13360;48.152;-1.788;2023-05-23T05:44:46;102463.88;;;16.07;100.00
25430;BME280;13360;48.152;-1.788;2023-05-23T05:47:12;102461.94;;;16.08;100.00
25430;BME280;13360;48.152;-1.788;2023-05-23T05:49:37;102459.94;;;16.13;100.00
25430;BME280;13360;48.152;-1.788;2023-05-23T05:52:02;102456.31;;;16.13;100.00
25430;BME280;13360;48.152;-1.788;2023-05-23T05:54:27;102446.03;;;16.08;100.00
25430;BME280;13360;48.152;-1.788;2023-05-23T05:56:53;102453.56;;;16.08;100.00
25430;BME280;13360;48.152;-1.788;2023-05-23T05:59:18;102469.16;;;16.09;100.00
25430;BME280;13360;48.152;-1.788;2023-05-23T06:01:44;102469.72;;;16.11;100.00
25430;BME280;13360;48.152;-1.788;2023-05-23T06:04:09;102488.34;;;16.15;100.00
25430;BME280;13360;48.152;-1.788;2023-05-23T06:06:34;102485.91;;;16.09;100.00
25430;BME280;13360;48.152;-1.788;2023-05-23T06:09:00;102498.41;;;16.11;100.00
25430;BME280;13360;48.152;-1.788;2023-05-23T06:11:25;102505.91;;;16.16;100.00
25430;BME280;13360;48.152;-1.788;2023-05-23T06:13:50;102526.25;;;16.16;100.00
25430;BME280;13360;48.152;-1.788;2023-05-23T06:16:16;102526.19;;;16.22;100.00
25430;BME280;13360;48.152;-1.788;2023-05-23T06:18:41;102523.41;;;16.22;100.00
25430;BME280;13360;48.152;-1.788;2023-05-23T06:21:06;102529.81;;;16.22;100.00
25430;BME280;13360;48.152;-1.788;2023-05-23T06:23:31;102530.63;;;16.23;100.00
25430;BME280;13360;48.152;-1.788;2023-05-23T06:25:57;102526.19;;;16.22;100.00
25430;BME280;13360;48.152;-1.788;2023-05-23T06:28:22;102529.81;;;16.22;100.00
25430;BME280;13360;48.152;-1.788;2023-05-23T06:30:48;102537.06;;;16.23;100.00
25430;BME280;13360;48.152;-1.788;2023-05-23T06:33:13;102537.63;;;16.20;100.00
25430;BME280;13360;48.152;-1.788;2023-05-23T06:35:38;102542.09;;;16.21;100.00
25430;BME280;13360;48.152;-1.788;2023-05-23T06:38:03;102549.31;;;16.27;100.00
25430;BME280;13360;48.152;-1.788;2023-05-23T06:40:28;102548.19;;;16.23;100.00
25430;BME280;13360;48.152;-1.788;2023-05-23T06:42:54;102545.94;;;16.30;100.00
25430;BME280;13360;48.152;-1.788;2023-05-23T06:45:19;102547.59;;;16.31;100.00
25430;BME280;13360;48.152;-1.788;2023-05-23T06:47:44;102520.31;;;16.23;100.00
25430;BME280;13360;48.152;-1.788;2023-05-23T06:50:12;102538.63;;;16.34;100.00
25430;BME280;13360;48.152;-1.788;2023-05-23T06:52:37;102538.06;;;16.37;100.00
25430;BME280;13360;48.152;-1.788;2023-05-23T06:55:02;102541.97;;;16.36;100.00
25430;BME280;13360;48.152;-1.788;2023-05-23T06:57:28;102519.72;;;16.31;100.00
25430;BME280;13360;48.152;-1.788;2023-05-23T06:59:53;102518.00;;;16.35;100.00
25430;BME280;13360;48.152;-1.788;2023-05-23T07:02:19;102523.69;;;16.25;100.00
25430;BME280;13360;48.152;-1.788;2023-05-23T07:04:44;102542.06;;;16.26;100.00
25430;BME280;13360;48.152;-1.788;2023-05-23T07:07:09;102561.88;;;16.25;100.00
25430;BME280;13360;48.152;-1.788;2023-05-23T07:09:34;102564.69;;;16.20;100.00
25430;BME280;13360;48.152;-1.788;2023-05-23T07:12:00;102589.19;;;16.23;100.00
25430;BME280;13360;48.152;-1.788;2023-05-23T07:14:25;102589.47;;;16.21;100.00
25430;BME280;13360;48.152;-1.788;2023-05-23T07:16:50;102598.66;;;16.27;100.00
25430;BME280;13360;48.152;-1.788;2023-05-23T07:19:15;102578.03;;;16.23;100.00
25430;BME280;13360;48.152;-1.788;2023-05-23T07:21:40;102601.19;;;16.23;100.00
25430;BME280;13360;48.152;-1.788;2023-05-23T07:24:06;102593.97;;;16.17;100.00
25430;BME280;13360;48.152;-1.788;2023-05-23T07:26:31;102598.97;;;16.25;100.00
25430;BME280;13360;48.152;-1.788;2023-05-23T07:28:56;102594.50;;;16.24;100.00
25430;BME280;13360;48.152;-1.788;2023-05-23T07:31:22;102607.31;;;16.25;100.00
25430;BME280;13360;48.152;-1.788;2023-05-23T07:33:47;102610.66;;;16.22;100.00
25430;BME280;13360;48.152;-1.788;2023-05-23T07:36:12;102593.41;;;16.20;100.00
25430;BME280;13360;48.152;-1.788;2023-05-23T07:38:37;102583.34;;;16.24;100.00
25430;BME280;13360;48.152;-1.788;2023-05-23T07:41:03;102577.19;;;16.27;100.00
25430;BME280;13360;48.152;-1.788;2023-05-23T07:43:28;102589.97;;;16.33;100.00
25430;BME280;13360;48.152;-1.788;2023-05-23T07:45:53;102586.28;;;16.38;100.00
25430;BME280;13360;48.152;-1.788;2023-05-23T07:48:18;102574.00;;;16.39;100.00
25430;BME280;13360;48.152;-1.788;2023-05-23T07:50:44;102554.78;;;16.37;100.00
25430;BME280;13360;48.152;-1.788;2023-05-23T07:53:09;102554.78;;;16.37;100.00
25430;BME280;13360;48.152;-1.788;2023-05-23T07:55:34;102555.84;;;16.46;100.00
25430;BME280;13360;48.152;-1.788;2023-05-23T07:58:00;102565.75;;;16.58;100.00
25430;BME280;13360;48.152;-1.788;2023-05-23T08:00:25;102604.41;;;16.74;100.00
25430;BME280;13360;48.152;-1.788;2023-05-23T08:02:50;102565.34;;;16.74;100.00
25430;BME280;13360;48.152;-1.788;2023-05-23T08:05:16;102577.78;;;16.87;100.00
25430;BME280;13360;48.152;-1.788;2023-05-23T08:07:43;102596.63;;;17.00;100.00
25430;BME280;13360;48.152;-1.788;2023-05-23T08:10:08;102605.13;;;17.14;100.00
25430;BME280;13360;48.152;-1.788;2023-05-23T08:12:33;102606.13;;;17.23;100.00
25430;BME280;13360;48.152;-1.788;2023-05-23T08:14:59;102578.44;;;17.27;100.00
25430;BME280;13360;48.152;-1.788;2023-05-23T08:17:24;102546.59;;;17.28;100.00
25430;BME280;13360;48.152;-1.788;2023-05-23T08:19:49;102550.41;;;17.37;100.00
25430;BME280;13360;48.152;-1.788;2023-05-23T08:22:15;102541.00;;;17.28;100.00
25430;BME280;13360;48.152;-1.788;2023-05-23T08:24:40;102545.53;;;17.24;100.00
25430;BME280;13360;48.152;-1.788;2023-05-23T08:27:05;102534.50;;;17.14;100.00
25430;BME280;13360;48.152;-1.788;2023-05-23T08:29:31;102529.31;;;17.02;100.00
25430;BME280;13360;48.152;-1.788;2023-05-23T08:31:57;102571.72;;;17.04;100.00
25430;BME280;13360;48.152;-1.788;2023-05-23T08:34:22;102614.94;;;17.12;100.00
25430;BME280;13360;48.152;-1.788;2023-05-23T08:36:47;102639.34;;;17.25;100.00
25430;BME280;13360;48.152;-1.788;2023-05-23T08:39:13;102605.91;;;17.20;100.00
25430;BME280;13360;48.152;-1.788;2023-05-23T08:41:38;102638.13;;;17.36;100.00
25430;BME280;13360;48.152;-1.788;2023-05-23T08:44:03;102617.38;;;17.42;100.00
25430;BME280;13360;48.152;-1.788;2023-05-23T08:46:29;102651.31;;;17.54;100.00
25430;BME280;13360;48.152;-1.788;2023-05-23T08:48:56;102622.88;;;17.47;100.00
25430;BME280;13360;48.152;-1.788;2023-05-23T08:51:26;102602.81;;;17.45;100.00
25430;BME280;13360;48.152;-1.788;2023-05-23T08:53:51;102649.41;;;17.50;100.00
25430;BME280;13360;48.152;-1.788;2023-05-23T08:56:18;102649.06;;;17.56;100.00
25430;BME280;13360;48.152;-1.788;2023-05-23T08:58:43;102665.69;;;17.66;100.00
25430;BME280;13360;48.152;-1.788;2023-05-23T09:01:12;102630.47;;;17.65;100.00
25430;BME280;13360;48.152;-1.788;2023-05-23T09:03:38;102587.06;;;17.54;100.00
25430;BME280;13360;48.152;-1.788;2023-05-23T09:06:07;102617.88;;;17.49;100.00
25430;BME280;13360;48.152;-1.788;2023-05-23T09:08:32;102636.22;;;17.55;100.00
25430;BME280;13360;48.152;-1.788;2023-05-23T09:10:57;102605.66;;;17.40;100.00
25430;BME280;13360;48.152;-1.788;2023-05-23T09:13:23;102601.03;;;17.30;100.00
25430;BME280;13360;48.152;-1.788;2023-05-23T09:16:22;102620.34;;;17.27;100.00
25430;BME280;13360;48.152;-1.788;2023-05-23T09:18:42;102658.88;;;17.30;100.00
25430;BME280;13360;48.152;-1.788;2023-05-23T09:21:08;102676.03;;;17.42;100.00
25430;BME280;13360;48.152;-1.788;2023-05-23T09:23:37;102662.78;;;17.29;100.00
25430;BME280;13360;48.152;-1.788;2023-05-23T09:26:06;102690.72;;;17.29;100.00
25430;BME280;13360;48.152;-1.788;2023-05-23T09:28:32;102715.72;;;17.39;100.00
25430;BME280;13360;48.152;-1.788;2023-05-23T09:30:58;102741.50;;;17.60;100.00
25430;BME280;13360;48.152;-1.788;2023-05-23T09:33:27;102726.25;;;17.47;100.00
25430;BME280;13360;48.152;-1.788;2023-05-23T09:35:53;102710.16;;;17.39;100.00
25430;BME280;13360;48.152;-1.788;2023-05-23T09:38:18;102719.06;;;17.41;100.00
25430;BME280;13360;48.152;-1.788;2023-05-23T09:40:43;102726.31;;;17.42;100.00
25430;BME280;13360;48.152;-1.788;2023-05-23T09:43:09;102754.25;;;17.42;100.00
25430;BME280;13360;48.152;-1.788;2023-05-23T09:45:34;102715.84;;;17.29;100.00
25430;BME280;13360;48.152;-1.788;2023-05-23T09:48:00;102739.75;;;17.40;100.00
25430;BME280;13360;48.152;-1.788;2023-05-23T09:50:29;102711.56;;;17.36;100.00
25430;BME280;13360;48.152;-1.788;2023-05-23T09:52:55;102717.41;;;17.40;100.00
25430;BME280;13360;48.152;-1.788;2023-05-23T09:55:21;102744.50;;;17.40;100.00
25430;BME280;13360;48.152;-1.788;2023-05-23T09:57:47;102733.91;;;17.36;100.00
25430;BME280;13360;48.152;-1.788;2023-05-23T10:00:13;102752.06;;;17.39;100.00
25430;BME280;13360;48.152;-1.788;2023-05-23T10:05:05;102728.81;;;17.44;100.00
25430;BME280;13360;48.152;-1.788;2023-05-23T10:07:30;102714.50;;;17.50;100.00
25430;BME280;13360;48.152;-1.788;2023-05-23T10:09:58;102690.81;;;17.72;100.00
25430;BME280;13360;48.152;-1.788;2023-05-23T10:14:58;102598.00;;;17.93;100.00
25430;BME280;13360;48.152;-1.788;2023-05-23T10:20:04;102554.47;;;17.87;100.00
25430;BME280;13360;48.152;-1.788;2023-05-23T10:22:33;102567.94;;;18.55;100.00
25430;BME280;13360;48.152;-1.788;2023-05-23T10:24:58;102490.22;;;18.66;100.00
25430;BME280;13360;48.152;-1.788;2023-05-23T10:27:23;102469.75;;;19.34;100.00
25430;BME280;13360;48.152;-1.788;2023-05-23T10:29:49;102402.47;;;19.12;100.00
25430;BME280;13360;48.152;-1.788;2023-05-23T10:32:14;102409.47;;;18.87;100.00
25430;BME280;13360;48.152;-1.788;2023-05-23T10:42:51;102396.59;;;19.00;100.00
25430;BME280;13360;48.152;-1.788;2023-05-23T10:45:22;102368.34;;;19.10;100.00
25430;BME280;13360;48.152;-1.788;2023-05-23T10:47:48;102345.53;;;19.16;100.00
25430;BME280;13360;48.152;-1.788;2023-05-23T10:50:32;102323.13;;;19.16;100.00
25430;BME280;13360;48.152;-1.788;2023-05-23T10:53:01;102303.56;;;19.25;100.00
25430;BME280;13360;48.152;-1.788;2023-05-23T10:55:30;102276.75;;;19.33;100.00
25430;BME280;13360;48.152;-1.788;2023-05-23T11:00:46;102311.97;;;19.47;100.00
25430;BME280;13360;48.152;-1.788;2023-05-23T11:03:14;102280.28;;;19.38;100.00
25430;BME280;13360;48.152;-1.788;2023-05-23T11:05:46;102241.81;;;19.08;100.00
25430;BME280;13360;48.152;-1.788;2023-05-23T11:08:12;102226.34;;;18.88;100.00
25430;BME280;13360;48.152;-1.788;2023-05-23T11:10:54;102249.38;;;18.85;100.00
25430;BME280;13360;48.152;-1.788;2023-05-23T11:13:20;102236.97;;;18.77;100.00
25430;BME280;13360;48.152;-1.788;2023-05-23T11:15:46;102239.28;;;18.75;100.00
25430;BME280;13360;48.152;-1.788;2023-05-23T11:18:18;102233.91;;;18.65;100.00
25430;BME280;13360;48.152;-1.788;2023-05-23T11:20:44;102237.19;;;18.67;100.00
25430;BME280;13360;48.152;-1.788;2023-05-23T11:23:11;102276.47;;;18.76;100.00
25430;BME280;13360;48.152;-1.788;2023-05-23T11:25:40;102235.66;;;18.75;100.00
25430;BME280;13360;48.152;-1.788;2023-05-23T11:28:06;102249.81;;;18.78;100.00
25430;BME280;13360;48.152;-1.788;2023-05-23T11:30:32;102232.13;;;18.92;100.00
25430;BME280;13360;48.152;-1.788;2023-05-23T11:32:57;102215.84;;;18.94;100.00
25430;BME280;13360;48.152;-1.788;2023-05-23T11:35:23;102203.00;;;18.93;100.00
25430;BME280;13360;48.152;-1.788;2023-05-23T11:37:48;102178.94;;;18.92;100.00
25430;BME280;13360;48.152;-1.788;2023-05-23T11:40:29;102182.97;;;18.99;100.00
25430;BME280;13360;48.152;-1.788;2023-05-23T11:42:58;102171.81;;;19.08;100.00
25430;BME280;13360;48.152;-1.788;2023-05-23T11:45:24;102139.09;;;19.17;100.00
25430;BME280;13360;48.152;-1.788;2023-05-23T11:47:50;102207.22;;;19.35;100.00
25430;BME280;13360;48.152;-1.788;2023-05-23T11:50:15;102200.06;;;19.20;100.00
25430;BME280;13360;48.152;-1.788;2023-05-23T11:52:41;102171.31;;;19.06;100.00
25430;BME280;13360;48.152;-1.788;2023-05-23T11:55:07;102150.53;;;18.98;100.00
25430;BME280;13360;48.152;-1.788;2023-05-23T11:57:32;102198.16;;;19.07;100.00
25430;BME280;13360;48.152;-1.788;2023-05-23T11:59:57;102199.16;;;19.11;100.00
25430;BME280;13360;48.152;-1.788;2023-05-23T12:02:23;102193.25;;;19.12;100.00
25430;BME280;13360;48.152;-1.788;2023-05-23T12:04:51;102232.22;;;19.23;100.00
25430;BME280;13360;48.152;-1.788;2023-05-23T12:07:19;102245.72;;;19.21;100.00
25430;BME280;13360;48.152;-1.788;2023-05-23T12:09:45;102213.50;;;19.09;100.00
25430;BME280;13360;48.152;-1.788;2023-05-23T12:12:11;102168.16;;;18.99;100.00
25430;BME280;13360;48.152;-1.788;2023-05-23T12:14:36;102171.78;;;18.99;100.00
25430;BME280;13360;48.152;-1.788;2023-05-23T12:17:08;102184.47;;;19.05;100.00
25430;BME280;13360;48.152;-1.788;2023-05-23T12:19:34;102174.78;;;19.11;100.00
25430;BME280;13360;48.152;-1.788;2023-05-23T12:22:04;102206.94;;;19.14;100.00
25430;BME280;13360;48.152;-1.788;2023-05-23T12:24:30;102129.94;;;19.03;100.00
25430;BME280;13360;48.152;-1.788;2023-05-23T12:26:59;102149.25;;;19.13;100.00
25430;BME280;13360;48.152;-1.788;2023-05-23T12:29:29;102159.56;;;19.26;100.00
25430;BME280;13360;48.152;-1.788;2023-05-23T12:31:56;102112.91;;;19.22;100.00
25430;BME280;13360;48.152;-1.788;2023-05-23T12:34:22;102059.66;;;19.13;100.00
25430;BME280;13360;48.152;-1.788;2023-05-23T12:36:47;102026.03;;;19.13;100.00
25430;BME280;13360;48.152;-1.788;2023-05-23T12:39:22;102036.31;;;19.26;100.00
25430;BME280;13360;48.152;-1.788;2023-05-23T12:41:48;102023.31;;;19.30;100.00
25430;BME280;13360;48.152;-1.788;2023-05-23T12:44:16;102047.75;;;19.38;100.00
25430;BME280;13360;48.152;-1.788;2023-05-23T12:46:41;102007.38;;;19.39;100.00
25430;BME280;13360;48.152;-1.788;2023-05-23T12:49:07;102005.06;;;19.41;100.00
25430;BME280;13360;48.152;-1.788;2023-05-23T12:51:32;101986.59;;;19.40;100.00
25430;BME280;13360;48.152;-1.788;2023-05-23T12:53:57;101979.19;;;19.44;100.00
25430;BME280;13360;48.152;-1.788;2023-05-23T12:56:23;101953.81;;;19.41;100.00
25430;BME280;13360;48.152;-1.788;2023-05-23T12:58:48;101965.66;;;19.38;100.00